UAL314 KSEA-KLAX
Flight info
| Callsign | UAL314 |
|---|---|
| Flight time | 2h 8m |
| Altitude | 39000 |
| Route | OZWLD KPOWW SEA152033 JINMO Q7 JAGWA BURGL IRNMN2 |
| Aircraft | B38M/M-SDE1FGHILORVWXY/HB1 |
Departure
| Time | 2026-04-22 02:00 |
|---|---|
| Airport | Seattle–Tacoma International Airport (KSEA) |
Arrival
| Time | 2026-04-22 04:08 |
|---|---|
| Airport | Los Angeles International Airport (KLAX) |
| Time | Latitude | Longitude | Altitude | Speed | Heading |
|---|---|---|---|---|---|
| 2026-04-22 01:31 | 47.44125 | -122.30300 | 395 ft | 0 kts | 292° |
| 2026-04-22 01:48 | 47.44124 | -122.30285 | 396 ft | 2 kts | 252° |
| 2026-04-22 01:48 | 47.44132 | -122.30264 | 396 ft | 2 kts | 231° |
| 2026-04-22 01:49 | 47.44139 | -122.30250 | 391 ft | 0 kts | 240° |
| 2026-04-22 01:53 | 47.44138 | -122.30252 | 391 ft | 1 kts | 232° |
| 2026-04-22 01:53 | 47.44115 | -122.30256 | 396 ft | 9 kts | 186° |
| 2026-04-22 01:53 | 47.44057 | -122.30270 | 396 ft | 16 kts | 202° |
| 2026-04-22 01:53 | 47.43996 | -122.30415 | 396 ft | 19 kts | 268° |
| 2026-04-22 01:54 | 47.44011 | -122.30611 | 390 ft | 15 kts | 310° |
| 2026-04-22 01:54 | 47.44101 | -122.30634 | 395 ft | 14 kts | 1° |
| 2026-04-22 01:54 | 47.44247 | -122.30632 | 395 ft | 17 kts | 359° |
| 2026-04-22 01:54 | 47.44374 | -122.30633 | 395 ft | 19 kts | 0° |
| 2026-04-22 01:55 | 47.44468 | -122.30632 | 396 ft | 21 kts | 0° |
| 2026-04-22 01:55 | 47.44618 | -122.30630 | 396 ft | 23 kts | 1° |
| 2026-04-22 01:55 | 47.44749 | -122.30629 | 395 ft | 18 kts | 0° |
| 2026-04-22 01:55 | 47.44884 | -122.30627 | 396 ft | 20 kts | 0° |
| 2026-04-22 01:56 | 47.45033 | -122.30627 | 390 ft | 22 kts | 0° |
| 2026-04-22 01:56 | 47.45193 | -122.30626 | 396 ft | 24 kts | 0° |
| 2026-04-22 01:56 | 47.45369 | -122.30625 | 396 ft | 26 kts | 360° |
| 2026-04-22 01:56 | 47.45540 | -122.30624 | 395 ft | 18 kts | 0° |
| 2026-04-22 01:57 | 47.45670 | -122.30624 | 395 ft | 20 kts | 0° |
| 2026-04-22 01:57 | 47.45815 | -122.30620 | 395 ft | 22 kts | 1° |
| 2026-04-22 01:57 | 47.45972 | -122.30620 | 390 ft | 23 kts | 359° |
| 2026-04-22 01:57 | 47.46141 | -122.30622 | 396 ft | 25 kts | 359° |
| 2026-04-22 01:58 | 47.46282 | -122.30619 | 395 ft | 20 kts | 1° |
| 2026-04-22 01:58 | 47.46372 | -122.30648 | 396 ft | 7 kts | 302° |
| 2026-04-22 01:58 | 47.46372 | -122.30719 | 393 ft | 8 kts | 244° |
| 2026-04-22 01:58 | 47.46335 | -122.30782 | 395 ft | 7 kts | 190° |
| 2026-04-22 01:59 | 47.46265 | -122.30781 | 395 ft | 26 kts | 180° |
| 2026-04-22 01:59 | 47.45812 | -122.30783 | 389 ft | 101 kts | 180° |
| 2026-04-22 01:59 | 47.44898 | -122.30799 | 397 ft | 159 kts | 181° |
| 2026-04-22 01:59 | 47.43712 | -122.30764 | 884 ft | 174 kts | 176° |
| 2026-04-22 02:00 | 47.42493 | -122.30632 | 1678 ft | 179 kts | 180° |
| 2026-04-22 02:00 | 47.41229 | -122.30919 | 2204 ft | 198 kts | 199° |
| 2026-04-22 02:00 | 47.39861 | -122.31802 | 2417 ft | 236 kts | 201° |
| 2026-04-22 02:00 | 47.38159 | -122.32107 | 3060 ft | 254 kts | 179° |
| 2026-04-22 02:01 | 47.36395 | -122.31992 | 3932 ft | 258 kts | 178° |
| 2026-04-22 02:01 | 47.34579 | -122.31852 | 4872 ft | 264 kts | 178° |
| 2026-04-22 02:01 | 47.32727 | -122.31693 | 5781 ft | 268 kts | 178° |
| 2026-04-22 02:01 | 47.30851 | -122.31520 | 6667 ft | 272 kts | 178° |
| 2026-04-22 02:02 | 47.28949 | -122.31336 | 7522 ft | 276 kts | 178° |
| 2026-04-22 02:02 | 47.27020 | -122.31147 | 8378 ft | 279 kts | 177° |
| 2026-04-22 02:02 | 47.25075 | -122.30940 | 9277 ft | 282 kts | 174° |
| 2026-04-22 02:02 | 47.23165 | -122.30225 | 10149 ft | 285 kts | 162° |
| 2026-04-22 02:03 | 47.21231 | -122.29263 | 10639 ft | 303 kts | 162° |
| 2026-04-22 02:03 | 47.19172 | -122.28221 | 10984 ft | 323 kts | 162° |
| 2026-04-22 02:03 | 47.17001 | -122.27109 | 11435 ft | 338 kts | 161° |
| 2026-04-22 02:03 | 47.14743 | -122.25945 | 12026 ft | 348 kts | 161° |
| 2026-04-22 02:04 | 47.10130 | -122.23562 | 13634 ft | 357 kts | 162° |
| 2026-04-22 02:04 | 47.07777 | -122.22347 | 14416 ft | 358 kts | 161° |
| 2026-04-22 02:04 | 47.05434 | -122.21139 | 15355 ft | 356 kts | 161° |
| 2026-04-22 02:05 | 47.03096 | -122.19934 | 16270 ft | 356 kts | 161° |
| 2026-04-22 02:05 | 47.00763 | -122.18733 | 17159 ft | 356 kts | 161° |
| 2026-04-22 02:05 | 46.98426 | -122.17532 | 18035 ft | 356 kts | 161° |
| 2026-04-22 02:05 | 46.96094 | -122.16333 | 18781 ft | 357 kts | 161° |
| 2026-04-22 02:06 | 46.93733 | -122.15121 | 19379 ft | 361 kts | 161° |
| 2026-04-22 02:06 | 46.91358 | -122.13903 | 20008 ft | 364 kts | 160° |
| 2026-04-22 02:06 | 46.88957 | -122.12672 | 20605 ft | 367 kts | 160° |
| 2026-04-22 02:06 | 46.86530 | -122.11430 | 21221 ft | 371 kts | 160° |
| 2026-04-22 02:07 | 46.84087 | -122.10181 | 21837 ft | 374 kts | 160° |
| 2026-04-22 02:07 | 46.81617 | -122.08919 | 22420 ft | 377 kts | 160° |
| 2026-04-22 02:07 | 46.79163 | -122.07666 | 23011 ft | 380 kts | 160° |
| 2026-04-22 02:07 | 46.76619 | -122.06369 | 23583 ft | 384 kts | 160° |
| 2026-04-22 02:08 | 46.74123 | -122.05099 | 24074 ft | 386 kts | 160° |
| 2026-04-22 02:08 | 46.71584 | -122.03806 | 24613 ft | 387 kts | 160° |
| 2026-04-22 02:08 | 46.69029 | -122.02508 | 25142 ft | 388 kts | 160° |
| 2026-04-22 02:08 | 46.66475 | -122.01210 | 25669 ft | 390 kts | 160° |
| 2026-04-22 02:09 | 46.63895 | -122.00025 | 26317 ft | 388 kts | 168° |
| 2026-04-22 02:09 | 46.61201 | -121.99843 | 26870 ft | 392 kts | 184° |
| 2026-04-22 02:09 | 46.58542 | -122.00830 | 27369 ft | 399 kts | 195° |
| 2026-04-22 02:09 | 46.55924 | -122.02202 | 27787 ft | 401 kts | 195° |
| 2026-04-22 02:10 | 46.53302 | -122.03607 | 28294 ft | 402 kts | 195° |
| 2026-04-22 02:10 | 46.50671 | -122.05041 | 28751 ft | 404 kts | 196° |
| 2026-04-22 02:10 | 46.48042 | -122.06491 | 29229 ft | 406 kts | 196° |
| 2026-04-22 02:10 | 46.45397 | -122.07955 | 29655 ft | 407 kts | 196° |
| 2026-04-22 02:11 | 46.42741 | -122.09427 | 30047 ft | 409 kts | 196° |
| 2026-04-22 02:11 | 46.40074 | -122.10904 | 30397 ft | 411 kts | 196° |
| 2026-04-22 02:11 | 46.37326 | -122.11861 | 30833 ft | 403 kts | 181° |
| 2026-04-22 02:11 | 46.34548 | -122.11636 | 31275 ft | 399 kts | 171° |
| 2026-04-22 02:12 | 46.31792 | -122.11098 | 31681 ft | 399 kts | 171° |
| 2026-04-22 02:12 | 46.29034 | -122.10509 | 31965 ft | 403 kts | 170° |
| 2026-04-22 02:12 | 46.26254 | -122.09882 | 32287 ft | 405 kts | 170° |
| 2026-04-22 02:12 | 46.23461 | -122.09232 | 32632 ft | 407 kts | 170° |
| 2026-04-22 02:13 | 46.20658 | -122.08568 | 32979 ft | 409 kts | 170° |
| 2026-04-22 02:13 | 46.17885 | -122.07905 | 33292 ft | 410 kts | 170° |
| 2026-04-22 02:13 | 46.15060 | -122.07230 | 33599 ft | 413 kts | 170° |
| 2026-04-22 02:13 | 46.12216 | -122.06553 | 33910 ft | 414 kts | 170° |
| 2026-04-22 02:14 | 46.09368 | -122.05874 | 34195 ft | 416 kts | 170° |
| 2026-04-22 02:14 | 46.06503 | -122.05191 | 34461 ft | 417 kts | 170° |
| 2026-04-22 02:14 | 46.03637 | -122.04509 | 34753 ft | 419 kts | 171° |
| 2026-04-22 02:14 | 46.00759 | -122.03824 | 35041 ft | 420 kts | 171° |
| 2026-04-22 02:15 | 45.97868 | -122.03138 | 35310 ft | 421 kts | 171° |
| 2026-04-22 02:15 | 45.94971 | -122.02450 | 35546 ft | 423 kts | 171° |
| 2026-04-22 02:15 | 45.92069 | -122.01762 | 35868 ft | 423 kts | 171° |
| 2026-04-22 02:15 | 45.89155 | -122.01072 | 36115 ft | 425 kts | 171° |
| 2026-04-22 02:16 | 45.86229 | -122.00380 | 36329 ft | 428 kts | 171° |
| 2026-04-22 02:16 | 45.83288 | -121.99686 | 36597 ft | 429 kts | 171° |
| 2026-04-22 02:16 | 45.80341 | -121.98990 | 36845 ft | 430 kts | 171° |
| 2026-04-22 02:16 | 45.77383 | -121.98293 | 37086 ft | 431 kts | 171° |
| 2026-04-22 02:17 | 45.74418 | -121.97594 | 37335 ft | 432 kts | 171° |
| 2026-04-22 02:17 | 45.71451 | -121.96896 | 37562 ft | 433 kts | 171° |
| 2026-04-22 02:17 | 45.68468 | -121.96196 | 37814 ft | 434 kts | 171° |
| 2026-04-22 02:17 | 45.65483 | -121.95495 | 38039 ft | 435 kts | 171° |
| 2026-04-22 02:18 | 45.62494 | -121.94794 | 38265 ft | 436 kts | 171° |
| 2026-04-22 02:18 | 45.59495 | -121.94092 | 38460 ft | 437 kts | 171° |
| 2026-04-22 02:18 | 45.56501 | -121.93391 | 38614 ft | 437 kts | 171° |
| 2026-04-22 02:19 | 45.50512 | -121.91993 | 38780 ft | 438 kts | 171° |
| 2026-04-22 02:19 | 45.47510 | -121.91293 | 38886 ft | 437 kts | 171° |
| 2026-04-22 02:19 | 45.44511 | -121.90593 | 38937 ft | 438 kts | 171° |
| 2026-04-22 02:20 | 45.38476 | -121.89190 | 38923 ft | 440 kts | 171° |
| 2026-04-22 02:20 | 45.32434 | -121.87788 | 38915 ft | 439 kts | 171° |
| 2026-04-22 02:21 | 45.26402 | -121.86390 | 38912 ft | 437 kts | 171° |
| 2026-04-22 02:21 | 45.20402 | -121.85004 | 38920 ft | 437 kts | 171° |
| 2026-04-22 02:22 | 45.14402 | -121.83621 | 38924 ft | 437 kts | 171° |
| 2026-04-22 02:22 | 45.08399 | -121.82240 | 38916 ft | 436 kts | 171° |
| 2026-04-22 02:23 | 45.02407 | -121.80864 | 38909 ft | 435 kts | 172° |
| 2026-04-22 02:23 | 44.96430 | -121.79494 | 38899 ft | 435 kts | 172° |
| 2026-04-22 02:24 | 44.90451 | -121.78127 | 38920 ft | 435 kts | 171° |
| 2026-04-22 02:24 | 44.84471 | -121.76762 | 38901 ft | 434 kts | 172° |
| 2026-04-22 02:25 | 44.78512 | -121.75405 | 38881 ft | 434 kts | 172° |
| 2026-04-22 02:25 | 44.72593 | -121.74061 | 38901 ft | 434 kts | 172° |
| 2026-04-22 02:26 | 44.66619 | -121.72707 | 38883 ft | 434 kts | 172° |
| 2026-04-22 02:26 | 44.60666 | -121.71359 | 38866 ft | 433 kts | 172° |
| 2026-04-22 02:27 | 44.54696 | -121.70011 | 38879 ft | 436 kts | 172° |
| 2026-04-22 02:27 | 44.48696 | -121.68659 | 38881 ft | 436 kts | 172° |
| 2026-04-22 02:28 | 44.42698 | -121.67310 | 38871 ft | 436 kts | 172° |
| 2026-04-22 02:28 | 44.36699 | -121.65963 | 38887 ft | 436 kts | 172° |
| 2026-04-22 02:29 | 44.30740 | -121.64599 | 38880 ft | 436 kts | 171° |
| 2026-04-22 02:29 | 44.24746 | -121.63206 | 38880 ft | 436 kts | 172° |
| 2026-04-22 02:30 | 44.18752 | -121.61817 | 38882 ft | 436 kts | 171° |
| 2026-04-22 02:30 | 44.12763 | -121.60432 | 38883 ft | 437 kts | 171° |
| 2026-04-22 02:31 | 44.06745 | -121.59044 | 38871 ft | 440 kts | 171° |
| 2026-04-22 02:31 | 44.00689 | -121.57650 | 38877 ft | 442 kts | 171° |
| 2026-04-22 02:32 | 43.94621 | -121.56256 | 38877 ft | 442 kts | 171° |
| 2026-04-22 02:32 | 43.88597 | -121.54875 | 38870 ft | 442 kts | 172° |
| 2026-04-22 02:33 | 43.82534 | -121.53487 | 38873 ft | 441 kts | 172° |
| 2026-04-22 02:33 | 43.76488 | -121.52106 | 38877 ft | 440 kts | 172° |
| 2026-04-22 02:34 | 43.70443 | -121.50729 | 38897 ft | 440 kts | 172° |
| 2026-04-22 02:34 | 43.64369 | -121.49348 | 38882 ft | 443 kts | 172° |
| 2026-04-22 02:35 | 43.58272 | -121.47964 | 38875 ft | 443 kts | 172° |
| 2026-04-22 02:35 | 43.52181 | -121.46585 | 38884 ft | 444 kts | 172° |
| 2026-04-22 02:36 | 43.46092 | -121.45208 | 38875 ft | 443 kts | 172° |
| 2026-04-22 02:36 | 43.40000 | -121.43834 | 38874 ft | 443 kts | 172° |
| 2026-04-22 02:37 | 43.33950 | -121.42472 | 38877 ft | 443 kts | 172° |
| 2026-04-22 02:37 | 43.27865 | -121.41105 | 38887 ft | 443 kts | 172° |
| 2026-04-22 02:38 | 43.21758 | -121.39736 | 38880 ft | 446 kts | 172° |
| 2026-04-22 02:38 | 43.15625 | -121.38364 | 38875 ft | 445 kts | 172° |
| 2026-04-22 02:39 | 43.09499 | -121.36996 | 38878 ft | 446 kts | 172° |
| 2026-04-22 02:39 | 43.04412 | -121.35862 | 38878 ft | 445 kts | 172° |
| 2026-04-22 02:40 | 42.97306 | -121.34282 | 38873 ft | 445 kts | 172° |
| 2026-04-22 02:40 | 42.92186 | -121.33145 | 38887 ft | 445 kts | 172° |
| 2026-04-22 02:41 | 42.86121 | -121.31802 | 38887 ft | 444 kts | 173° |
| 2026-04-22 02:41 | 42.80020 | -121.30452 | 38891 ft | 446 kts | 173° |
| 2026-04-22 02:42 | 42.73878 | -121.29096 | 38888 ft | 446 kts | 173° |
| 2026-04-22 02:42 | 42.67748 | -121.27745 | 38876 ft | 446 kts | 173° |
| 2026-04-22 02:43 | 42.61627 | -121.26400 | 38886 ft | 445 kts | 173° |
| 2026-04-22 02:43 | 42.55510 | -121.25057 | 38888 ft | 445 kts | 173° |
| 2026-04-22 02:44 | 42.49387 | -121.23717 | 38892 ft | 446 kts | 173° |
| 2026-04-22 02:44 | 42.43272 | -121.22380 | 38882 ft | 445 kts | 173° |
| 2026-04-22 02:45 | 42.37139 | -121.21042 | 38887 ft | 447 kts | 173° |
| 2026-04-22 02:45 | 42.30995 | -121.19704 | 38890 ft | 447 kts | 173° |
| 2026-04-22 02:46 | 42.24848 | -121.18369 | 38887 ft | 447 kts | 173° |
| 2026-04-22 02:46 | 42.18697 | -121.17035 | 38888 ft | 448 kts | 173° |
| 2026-04-22 02:47 | 42.12588 | -121.15713 | 38894 ft | 448 kts | 173° |
| 2026-04-22 02:47 | 42.06432 | -121.14384 | 38891 ft | 447 kts | 173° |
| 2026-04-22 02:48 | 42.00285 | -121.13058 | 38877 ft | 448 kts | 173° |
| 2026-04-22 02:48 | 41.94118 | -121.11732 | 38881 ft | 449 kts | 173° |
| 2026-04-22 02:49 | 41.87948 | -121.10407 | 38875 ft | 448 kts | 173° |
| 2026-04-22 02:49 | 41.81797 | -121.09089 | 38880 ft | 448 kts | 173° |
| 2026-04-22 02:50 | 41.75638 | -121.07771 | 38888 ft | 448 kts | 173° |
| 2026-04-22 02:50 | 41.69525 | -121.06466 | 38894 ft | 447 kts | 173° |
| 2026-04-22 02:51 | 41.63381 | -121.05158 | 38910 ft | 447 kts | 174° |
| 2026-04-22 02:51 | 41.57217 | -121.03846 | 38916 ft | 449 kts | 174° |
| 2026-04-22 02:52 | 41.51041 | -121.02536 | 38924 ft | 450 kts | 174° |
| 2026-04-22 02:52 | 41.44851 | -121.01225 | 38931 ft | 450 kts | 174° |
| 2026-04-22 02:53 | 41.38655 | -120.99915 | 38937 ft | 450 kts | 174° |
| 2026-04-22 02:53 | 41.32466 | -120.98608 | 38925 ft | 450 kts | 174° |
| 2026-04-22 02:54 | 41.26308 | -120.97312 | 38929 ft | 450 kts | 174° |
| 2026-04-22 02:54 | 41.20111 | -120.96009 | 38946 ft | 451 kts | 174° |
| 2026-04-22 02:55 | 41.13914 | -120.94708 | 38939 ft | 451 kts | 174° |
| 2026-04-22 02:55 | 41.07712 | -120.93409 | 38937 ft | 451 kts | 174° |
| 2026-04-22 02:56 | 41.01519 | -120.92115 | 38945 ft | 450 kts | 175° |
| 2026-04-22 02:56 | 40.95353 | -120.91619 | 38945 ft | 448 kts | 180° |
| 2026-04-22 02:57 | 40.89134 | -120.91152 | 38953 ft | 448 kts | 180° |
| 2026-04-22 02:57 | 40.82911 | -120.90654 | 38953 ft | 448 kts | 180° |
| 2026-04-22 02:58 | 40.76695 | -120.90153 | 38945 ft | 447 kts | 180° |
| 2026-04-22 02:58 | 40.70487 | -120.89653 | 38943 ft | 447 kts | 180° |
| 2026-04-22 02:59 | 40.64280 | -120.89155 | 38949 ft | 447 kts | 180° |
| 2026-04-22 02:59 | 40.58071 | -120.88658 | 38950 ft | 446 kts | 180° |
| 2026-04-22 03:00 | 40.51875 | -120.88163 | 38952 ft | 446 kts | 180° |
| 2026-04-22 03:00 | 40.45702 | -120.87670 | 38965 ft | 447 kts | 180° |
| 2026-04-22 03:01 | 40.39493 | -120.87176 | 38965 ft | 446 kts | 180° |
| 2026-04-22 03:01 | 40.33295 | -120.86683 | 38960 ft | 447 kts | 180° |
| 2026-04-22 03:02 | 40.27088 | -120.86190 | 38964 ft | 447 kts | 180° |
| 2026-04-22 03:02 | 40.20871 | -120.85698 | 38960 ft | 447 kts | 180° |
| 2026-04-22 03:03 | 40.14665 | -120.85207 | 38977 ft | 447 kts | 180° |
| 2026-04-22 03:03 | 40.08479 | -120.84719 | 38968 ft | 447 kts | 180° |
| 2026-04-22 03:04 | 40.02273 | -120.84231 | 38980 ft | 447 kts | 180° |
| 2026-04-22 03:04 | 39.96050 | -120.83741 | 38985 ft | 447 kts | 180° |
| 2026-04-22 03:05 | 39.89836 | -120.83253 | 38983 ft | 447 kts | 180° |
| 2026-04-22 03:05 | 39.83619 | -120.82766 | 38990 ft | 448 kts | 181° |
| 2026-04-22 03:06 | 39.77381 | -120.82278 | 38998 ft | 448 kts | 181° |
| 2026-04-22 03:06 | 39.71164 | -120.81793 | 39007 ft | 448 kts | 181° |
| 2026-04-22 03:07 | 39.64943 | -120.81308 | 39013 ft | 448 kts | 181° |
| 2026-04-22 03:07 | 39.58755 | -120.80827 | 39003 ft | 448 kts | 181° |
| 2026-04-22 03:08 | 39.52530 | -120.80344 | 39011 ft | 448 kts | 181° |
| 2026-04-22 03:08 | 39.46312 | -120.79862 | 39012 ft | 448 kts | 181° |
| 2026-04-22 03:09 | 39.40095 | -120.79381 | 39010 ft | 447 kts | 181° |
| 2026-04-22 03:09 | 39.33876 | -120.78901 | 39024 ft | 447 kts | 181° |
| 2026-04-22 03:10 | 39.27659 | -120.78422 | 39021 ft | 448 kts | 181° |
| 2026-04-22 03:10 | 39.21417 | -120.77941 | 39027 ft | 449 kts | 181° |
| 2026-04-22 03:11 | 39.15190 | -120.77462 | 39034 ft | 448 kts | 181° |
| 2026-04-22 03:11 | 39.08945 | -120.76984 | 39011 ft | 450 kts | 181° |
| 2026-04-22 03:12 | 39.02730 | -120.76508 | 39036 ft | 451 kts | 181° |
| 2026-04-22 03:12 | 38.93333 | -120.75791 | 39059 ft | 451 kts | 181° |
| 2026-04-22 03:13 | 38.87058 | -120.75313 | 39067 ft | 453 kts | 182° |
| 2026-04-22 03:13 | 38.80760 | -120.74833 | 39076 ft | 452 kts | 182° |
| 2026-04-22 03:14 | 38.74473 | -120.74356 | 39071 ft | 452 kts | 182° |
| 2026-04-22 03:14 | 38.68185 | -120.73880 | 39071 ft | 452 kts | 182° |
| 2026-04-22 03:15 | 38.61895 | -120.73404 | 39065 ft | 452 kts | 182° |
| 2026-04-22 03:15 | 38.55605 | -120.72929 | 39077 ft | 452 kts | 182° |
| 2026-04-22 03:16 | 38.49364 | -120.72458 | 39085 ft | 452 kts | 182° |
| 2026-04-22 03:16 | 38.43076 | -120.71985 | 39091 ft | 452 kts | 182° |
| 2026-04-22 03:17 | 38.36791 | -120.71513 | 39095 ft | 453 kts | 182° |
| 2026-04-22 03:17 | 38.30505 | -120.71041 | 39082 ft | 452 kts | 182° |
| 2026-04-22 03:18 | 38.24217 | -120.70570 | 39108 ft | 452 kts | 182° |
| 2026-04-22 03:18 | 38.17938 | -120.70101 | 39110 ft | 452 kts | 182° |
| 2026-04-22 03:19 | 38.11660 | -120.69632 | 39111 ft | 452 kts | 183° |
| 2026-04-22 03:19 | 38.05420 | -120.69168 | 39121 ft | 452 kts | 183° |
| 2026-04-22 03:20 | 37.99145 | -120.68701 | 39098 ft | 451 kts | 183° |
| 2026-04-22 03:20 | 37.92873 | -120.68235 | 39062 ft | 451 kts | 184° |
| 2026-04-22 03:21 | 37.86602 | -120.67771 | 39074 ft | 451 kts | 184° |
| 2026-04-22 03:21 | 37.80316 | -120.67306 | 39076 ft | 451 kts | 184° |
| 2026-04-22 03:22 | 37.74038 | -120.66842 | 39050 ft | 451 kts | 184° |
| 2026-04-22 03:22 | 37.67773 | -120.66380 | 39086 ft | 451 kts | 184° |
| 2026-04-22 03:23 | 37.61511 | -120.65919 | 39091 ft | 451 kts | 184° |
| 2026-04-22 03:23 | 37.55244 | -120.65458 | 39084 ft | 451 kts | 184° |
| 2026-04-22 03:24 | 37.49025 | -120.65002 | 39082 ft | 450 kts | 185° |
| 2026-04-22 03:24 | 37.42773 | -120.64545 | 39088 ft | 450 kts | 185° |
| 2026-04-22 03:25 | 37.36520 | -120.64087 | 39088 ft | 450 kts | 185° |
| 2026-04-22 03:25 | 37.30277 | -120.62898 | 39108 ft | 462 kts | 174° |
| 2026-04-22 03:26 | 37.24047 | -120.60902 | 39086 ft | 463 kts | 174° |
| 2026-04-22 03:26 | 37.17805 | -120.58880 | 39092 ft | 463 kts | 174° |
| 2026-04-22 03:27 | 37.11563 | -120.56856 | 39079 ft | 464 kts | 174° |
| 2026-04-22 03:27 | 37.05305 | -120.54831 | 39098 ft | 464 kts | 174° |
| 2026-04-22 03:28 | 36.99053 | -120.52808 | 39095 ft | 464 kts | 174° |
| 2026-04-22 03:28 | 36.93814 | -120.51118 | 39076 ft | 464 kts | 174° |
| 2026-04-22 03:29 | 36.87559 | -120.49102 | 39097 ft | 464 kts | 174° |
| 2026-04-22 03:29 | 36.81307 | -120.47090 | 39097 ft | 464 kts | 174° |
| 2026-04-22 03:30 | 36.75091 | -120.45093 | 39071 ft | 464 kts | 174° |
| 2026-04-22 03:30 | 36.68813 | -120.43080 | 39096 ft | 463 kts | 175° |
| 2026-04-22 03:31 | 36.62569 | -120.41082 | 39096 ft | 463 kts | 175° |
| 2026-04-22 03:31 | 36.56371 | -120.39101 | 39099 ft | 463 kts | 174° |
| 2026-04-22 03:32 | 36.50121 | -120.37107 | 39100 ft | 464 kts | 174° |
| 2026-04-22 03:32 | 36.43867 | -120.35115 | 39100 ft | 464 kts | 174° |
| 2026-04-22 03:33 | 36.37619 | -120.33128 | 39102 ft | 463 kts | 174° |
| 2026-04-22 03:33 | 36.31371 | -120.31145 | 39102 ft | 463 kts | 175° |
| 2026-04-22 03:34 | 36.25133 | -120.29167 | 39102 ft | 463 kts | 175° |
| 2026-04-22 03:34 | 36.18898 | -120.27195 | 39100 ft | 463 kts | 175° |
| 2026-04-22 03:35 | 36.12654 | -120.25222 | 39097 ft | 463 kts | 175° |
| 2026-04-22 03:35 | 36.06414 | -120.23254 | 39102 ft | 462 kts | 175° |
| 2026-04-22 03:36 | 36.00175 | -120.21290 | 39103 ft | 462 kts | 175° |
| 2026-04-22 03:36 | 35.93941 | -120.19331 | 39099 ft | 463 kts | 175° |
| 2026-04-22 03:37 | 35.87683 | -120.17366 | 39118 ft | 464 kts | 175° |
| 2026-04-22 03:37 | 35.81428 | -120.15407 | 39100 ft | 464 kts | 175° |
| 2026-04-22 03:38 | 35.75172 | -120.13450 | 39090 ft | 465 kts | 175° |
| 2026-04-22 03:38 | 35.68876 | -120.11464 | 39114 ft | 469 kts | 172° |
| 2026-04-22 03:39 | 35.65838 | -120.09818 | 39110 ft | 484 kts | 156° |
| 2026-04-22 03:39 | 35.63030 | -120.07485 | 39133 ft | 488 kts | 154° |
| 2026-04-22 03:39 | 35.57429 | -120.02699 | 39069 ft | 491 kts | 153° |
| 2026-04-22 03:40 | 35.51845 | -119.97826 | 39121 ft | 494 kts | 153° |
| 2026-04-22 03:40 | 35.46261 | -119.92942 | 39101 ft | 492 kts | 153° |
| 2026-04-22 03:41 | 35.40713 | -119.88099 | 39070 ft | 492 kts | 153° |
| 2026-04-22 03:41 | 35.35123 | -119.83227 | 39114 ft | 494 kts | 153° |
| 2026-04-22 03:42 | 35.29532 | -119.78362 | 39099 ft | 491 kts | 153° |
| 2026-04-22 03:42 | 35.23950 | -119.73514 | 39105 ft | 492 kts | 153° |
| 2026-04-22 03:43 | 35.18362 | -119.68669 | 39088 ft | 492 kts | 153° |
| 2026-04-22 03:43 | 35.12776 | -119.63834 | 39086 ft | 492 kts | 153° |
| 2026-04-22 03:44 | 35.09982 | -119.61418 | 38940 ft | 492 kts | 153° |
| 2026-04-22 03:44 | 35.07191 | -119.59009 | 37921 ft | 496 kts | 153° |
| 2026-04-22 03:44 | 35.04349 | -119.56554 | 37123 ft | 497 kts | 153° |
| 2026-04-22 03:44 | 35.01557 | -119.54146 | 36457 ft | 491 kts | 153° |
| 2026-04-22 03:45 | 34.98771 | -119.51746 | 35590 ft | 488 kts | 153° |
| 2026-04-22 03:45 | 34.95991 | -119.49354 | 34659 ft | 488 kts | 153° |
| 2026-04-22 03:45 | 34.93216 | -119.46967 | 33623 ft | 488 kts | 153° |
| 2026-04-22 03:45 | 34.90427 | -119.44571 | 32445 ft | 493 kts | 152° |
| 2026-04-22 03:46 | 34.87647 | -119.42184 | 31460 ft | 498 kts | 152° |
| 2026-04-22 03:46 | 34.84814 | -119.39753 | 30591 ft | 498 kts | 152° |
| 2026-04-22 03:46 | 34.81984 | -119.37328 | 29774 ft | 497 kts | 152° |
| 2026-04-22 03:46 | 34.79141 | -119.34894 | 28642 ft | 502 kts | 152° |
| 2026-04-22 03:47 | 34.76294 | -119.32458 | 27888 ft | 498 kts | 152° |
| 2026-04-22 03:47 | 34.73477 | -119.30049 | 27196 ft | 493 kts | 152° |
| 2026-04-22 03:47 | 34.70676 | -119.27657 | 26463 ft | 490 kts | 152° |
| 2026-04-22 03:47 | 34.67889 | -119.25277 | 25718 ft | 488 kts | 152° |
| 2026-04-22 03:48 | 34.65114 | -119.22916 | 24962 ft | 486 kts | 152° |
| 2026-04-22 03:48 | 34.62356 | -119.20572 | 24244 ft | 482 kts | 152° |
| 2026-04-22 03:48 | 34.59620 | -119.18237 | 23461 ft | 479 kts | 152° |
| 2026-04-22 03:48 | 34.56898 | -119.15918 | 22656 ft | 476 kts | 152° |
| 2026-04-22 03:49 | 34.54197 | -119.13621 | 21934 ft | 471 kts | 152° |
| 2026-04-22 03:49 | 34.51519 | -119.11345 | 21230 ft | 468 kts | 152° |
| 2026-04-22 03:49 | 34.48860 | -119.09083 | 20457 ft | 465 kts | 152° |
| 2026-04-22 03:49 | 34.46223 | -119.06853 | 19785 ft | 459 kts | 152° |
| 2026-04-22 03:50 | 34.43619 | -119.04676 | 19160 ft | 452 kts | 152° |
| 2026-04-22 03:50 | 34.41041 | -119.02477 | 18432 ft | 452 kts | 152° |
| 2026-04-22 03:50 | 34.38480 | -119.00297 | 17654 ft | 449 kts | 152° |
| 2026-04-22 03:50 | 34.35932 | -118.98143 | 17115 ft | 440 kts | 152° |
| 2026-04-22 03:51 | 34.33468 | -118.96063 | 16800 ft | 424 kts | 152° |
| 2026-04-22 03:51 | 34.31136 | -118.94092 | 16563 ft | 402 kts | 152° |
| 2026-04-22 03:51 | 34.28915 | -118.92214 | 16407 ft | 377 kts | 153° |
| 2026-04-22 03:51 | 34.26821 | -118.90447 | 16199 ft | 356 kts | 153° |
| 2026-04-22 03:52 | 34.24839 | -118.88702 | 15558 ft | 353 kts | 151° |
| 2026-04-22 03:52 | 34.22903 | -118.86918 | 15003 ft | 347 kts | 151° |
| 2026-04-22 03:52 | 34.20988 | -118.85169 | 14404 ft | 342 kts | 151° |
| 2026-04-22 03:52 | 34.19101 | -118.83447 | 13806 ft | 338 kts | 151° |
| 2026-04-22 03:53 | 34.17233 | -118.81747 | 13141 ft | 335 kts | 151° |
| 2026-04-22 03:53 | 34.15463 | -118.79939 | 12657 ft | 331 kts | 144° |
| 2026-04-22 03:53 | 34.13801 | -118.78096 | 12330 ft | 320 kts | 145° |
| 2026-04-22 03:53 | 34.12164 | -118.76305 | 12042 ft | 316 kts | 145° |
| 2026-04-22 03:54 | 34.10536 | -118.74538 | 11725 ft | 313 kts | 145° |
| 2026-04-22 03:54 | 34.08911 | -118.72804 | 11506 ft | 310 kts | 145° |
| 2026-04-22 03:54 | 34.07296 | -118.71054 | 11094 ft | 313 kts | 144° |
| 2026-04-22 03:54 | 34.05695 | -118.69332 | 10815 ft | 311 kts | 144° |
| 2026-04-22 03:55 | 34.04109 | -118.67585 | 10454 ft | 306 kts | 139° |
| 2026-04-22 03:55 | 34.02965 | -118.65359 | 10049 ft | 317 kts | 112° |
| 2026-04-22 03:55 | 34.02797 | -118.62740 | 9904 ft | 315 kts | 79° |
| 2026-04-22 03:55 | 34.03775 | -118.60434 | 10439 ft | 310 kts | 43° |
| 2026-04-22 03:56 | 34.05535 | -118.58989 | 11279 ft | 309 kts | 15° |
| 2026-04-22 03:56 | 34.07631 | -118.58507 | 11614 ft | 308 kts | 356° |
| 2026-04-22 03:56 | 34.09779 | -118.58096 | 11678 ft | 322 kts | 14° |
| 2026-04-22 03:56 | 34.11728 | -118.56698 | 11808 ft | 334 kts | 39° |
| 2026-04-22 03:57 | 34.13144 | -118.54456 | 11961 ft | 340 kts | 64° |
| 2026-04-22 03:57 | 34.13780 | -118.51728 | 11986 ft | 337 kts | 88° |
| 2026-04-22 03:57 | 34.13605 | -118.48987 | 11615 ft | 331 kts | 108° |
| 2026-04-22 03:57 | 34.12986 | -118.46327 | 11244 ft | 328 kts | 111° |
| 2026-04-22 03:58 | 34.12330 | -118.43709 | 10988 ft | 323 kts | 111° |
| 2026-04-22 03:58 | 34.11680 | -118.41122 | 10663 ft | 322 kts | 111° |
| 2026-04-22 03:58 | 34.11029 | -118.38553 | 10376 ft | 318 kts | 111° |
| 2026-04-22 03:58 | 34.10388 | -118.36010 | 10074 ft | 316 kts | 111° |
| 2026-04-22 03:59 | 34.09765 | -118.33471 | 9710 ft | 315 kts | 111° |
| 2026-04-22 03:59 | 34.09139 | -118.30960 | 9419 ft | 311 kts | 111° |
| 2026-04-22 03:59 | 34.08514 | -118.28472 | 9110 ft | 309 kts | 111° |
| 2026-04-22 03:59 | 34.07884 | -118.26011 | 8788 ft | 306 kts | 111° |
| 2026-04-22 04:00 | 34.07255 | -118.23571 | 8513 ft | 302 kts | 111° |
| 2026-04-22 04:00 | 34.06629 | -118.21173 | 8020 ft | 299 kts | 111° |
| 2026-04-22 04:00 | 34.05992 | -118.18799 | 7505 ft | 295 kts | 111° |
| 2026-04-22 04:00 | 34.05380 | -118.16453 | 6994 ft | 291 kts | 104° |
| 2026-04-22 04:01 | 34.05335 | -118.14038 | 6537 ft | 287 kts | 83° |
| 2026-04-22 04:01 | 34.05623 | -118.11659 | 5978 ft | 285 kts | 81° |
| 2026-04-22 04:01 | 34.05767 | -118.09297 | 5392 ft | 282 kts | 98° |
| 2026-04-22 04:01 | 34.05111 | -118.07149 | 5052 ft | 268 kts | 127° |
| 2026-04-22 04:02 | 34.03786 | -118.05711 | 4846 ft | 248 kts | 156° |
| 2026-04-22 04:02 | 34.02206 | -118.05287 | 4645 ft | 224 kts | 186° |
| 2026-04-22 04:02 | 34.00793 | -118.05857 | 4137 ft | 214 kts | 218° |
| 2026-04-22 04:02 | 33.99736 | -118.07096 | 3590 ft | 212 kts | 231° |
| 2026-04-22 04:03 | 33.99032 | -118.08606 | 3075 ft | 205 kts | 256° |
| 2026-04-22 04:03 | 33.98743 | -118.10267 | 2934 ft | 205 kts | 261° |
| 2026-04-22 04:03 | 33.98490 | -118.11971 | 2815 ft | 207 kts | 261° |
| 2026-04-22 04:03 | 33.98122 | -118.13650 | 2691 ft | 209 kts | 244° |
| 2026-04-22 04:04 | 33.97248 | -118.15049 | 2647 ft | 211 kts | 232° |
| 2026-04-22 04:04 | 33.96309 | -118.16407 | 2617 ft | 209 kts | 240° |
| 2026-04-22 04:04 | 33.95802 | -118.18016 | 2615 ft | 205 kts | 261° |
| 2026-04-22 04:04 | 33.95611 | -118.19720 | 2647 ft | 205 kts | 264° |
| 2026-04-22 04:05 | 33.95446 | -118.21423 | 2620 ft | 205 kts | 264° |
| 2026-04-22 04:05 | 33.95275 | -118.23133 | 2548 ft | 206 kts | 264° |
| 2026-04-22 04:05 | 33.95104 | -118.24820 | 2302 ft | 196 kts | 264° |
| 2026-04-22 04:05 | 33.94949 | -118.26347 | 2077 ft | 173 kts | 265° |
| 2026-04-22 04:06 | 33.94811 | -118.27686 | 1880 ft | 149 kts | 265° |
| 2026-04-22 04:06 | 33.94695 | -118.28842 | 1690 ft | 130 kts | 265° |
| 2026-04-22 04:06 | 33.94590 | -118.29892 | 1494 ft | 129 kts | 264° |
| 2026-04-22 04:06 | 33.94480 | -118.30967 | 1335 ft | 128 kts | 264° |
| 2026-04-22 04:07 | 33.94368 | -118.32040 | 1177 ft | 130 kts | 264° |
| 2026-04-22 04:07 | 33.94262 | -118.33131 | 994 ft | 132 kts | 263° |
| 2026-04-22 04:07 | 33.94143 | -118.34245 | 820 ft | 135 kts | 263° |
| 2026-04-22 04:07 | 33.94026 | -118.35359 | 636 ft | 132 kts | 263° |
| 2026-04-22 04:08 | 33.93923 | -118.36451 | 445 ft | 132 kts | 263° |
| 2026-04-22 04:08 | 33.93809 | -118.37536 | 294 ft | 127 kts | 262° |
| 2026-04-22 04:08 | 33.93709 | -118.38550 | 125 ft | 116 kts | 263° |
| 2026-04-22 04:08 | 33.93654 | -118.39068 | 128 ft | 20 kts | 263° |
| 2026-04-22 04:09 | 33.93638 | -118.39249 | 128 ft | 24 kts | 264° |
| 2026-04-22 04:09 | 33.93677 | -118.39369 | 126 ft | 16 kts | 350° |
| 2026-04-22 04:09 | 33.93728 | -118.39370 | 126 ft | 0 kts | 360° |
| 2026-04-22 04:12 | 33.93735 | -118.39370 | 126 ft | 6 kts | 360° |
| 2026-04-22 04:12 | 33.93812 | -118.39372 | 126 ft | 14 kts | 359° |
| 2026-04-22 04:12 | 33.93916 | -118.39384 | 127 ft | 16 kts | 321° |
| 2026-04-22 04:13 | 33.93928 | -118.39512 | 128 ft | 17 kts | 263° |
| 2026-04-22 04:13 | 33.93913 | -118.39670 | 128 ft | 20 kts | 263° |
| 2026-04-22 04:13 | 33.93894 | -118.39848 | 123 ft | 23 kts | 261° |
| 2026-04-22 04:13 | 33.93899 | -118.40032 | 126 ft | 21 kts | 314° |
| 2026-04-22 04:14 | 33.94028 | -118.40067 | 126 ft | 20 kts | 352° |
| 2026-04-22 04:14 | 33.94112 | -118.40069 | 127 ft | 0 kts | 39° |
| 2026-04-22 04:14 | 33.94118 | -118.40052 | 126 ft | 5 kts | 81° |
| 2026-04-22 04:14 | 33.94115 | -118.40026 | 128 ft | 0 kts | 97° |